Thursday, October 23, 2014
03:55 UTC
  |  Log In   |  Register Free
Airport Search:

Pike County-Hatcher Field Airport
(KPBX)

Pike County-Hatcher Field Airport Diagram
No Airport Diagram Available

FAA data valid effective September 18, 2014 - November 13, 2014 (unless otherwise noted).

 
 
 
 
 
 
 
 
 
 
 
 
 
 

Current Aviation Weather for Pike County-Hatcher Field Airport (KPBX)

The most recent METAR observation for KPBX was updated at: 0314
METAR Summary (Translated METAR)
KPBX
230255Z AUTO 32004KT 10SM SCT014 OVC025 08/06 A3022 RMK AO2 T00800058
KLNP
230255Z AUTO 34005KT 10SM OVC006 06/06 A3021 RMK AO2
(34.5 nm SE from KPBX)
KJKL
230253Z AUTO 00000KT 10SM OVC028 09/05 A3024 RMK AO2 SLP241 T00890050 51001
(35.8 nm NW from KPBX)
TAF Summary (Translated TAF)
KJKL
(52.3 nm NW from KLNP)
221745Z 2218/2318 35003KT P6SM SCT015 OVC025 FM222200 34004KT P6SM SCT025 SCT050 FM230300 VRB03KT P6SM FEW030 FM230900 00000KT 4SM BR SCT050 FM231300 04002KT P6SM SCT050
  Airport Weather Conditions for KPBX

Current weather conditions are
not available for PBX


The nearest NOAA weather station
is at LNP, (34.5 nm SE from PBX)
  
 Current Weather at LNP
43° F
Overcast
North winds at 5.8 mph
LNP NOAA Radar

Pressure: 30.21 in
Humidity: 100%
Wind: North at 5.8 MPH (5 KT)
Dew Point: 42.8°F
Visibility: 10.00 mi


Airport Weather Forecast for KPBX

Translated METAR and TAF for KLNP
Translated METAR for KLNP (0350 UTC 23 October 2014)
found at http://aviationweather.gov/adds/metars/
 
METAR text: KLNP 230335Z AUTO 35005KT 10SM BKN004 OVC009 06/06 A3021 RMK AO2
Conditions at: KLNP (WISE/LONESOME PI, VA, US) observed 0335 UTC 23 October 2014
Temperature: 6.0°C (43°F)
Dewpoint: 6.0°C (43°F) [RH = 100%]
Pressure (altimeter): 30.21 inches Hg (1023.1 mb)
Winds: from the N (350 degrees) at 6 MPH (5 knots; 2.6 m/s)
Visibility: 10 or more miles (16+ km)
Ceiling: 400 feet AGL
Clouds: broken clouds at 400 feet AGL
overcast cloud deck at 900 feet AGL
Weather: automated observation with no human augmentation;
there may or may not be significant weather present at this time
Translated TAF for KLNP

There is no translated TAF available for this airport

Find All Airport Services Find A Hotel Find A Rental Car Find A Golf Course Find A Restaurant $100 Hamburger



FBO's on the Field
FBO Company Facility Photos Services Transportation Aviation Fuel Prices: Prices include tax
Catering Weather Repair Courtesy Rental Type 100LL JetA JetA+ MOGAS 8087
 
Pikeville-Pike Airport

This FBO has not yet been rated
FS:Shell
Last Updated: Oct-17
Login to update fuel prices
SS:
Contact Pikeville-Pike AirportMore FBO Information
 
Add another FBO Facility Photos Catering Weather Repair Courtesy Rental Type 100LL JetA JetA+ MOGAS 8087
Services Transportation Aviation Fuel Prices: Prices include tax


model-print
model-print
model-print
model-print